createdAt,value
2022-09-13T00:00:17.204Z,2.60
2022-09-13T00:02:45.138Z,2.70
2022-09-13T00:05:13.154Z,2.80
2022-09-13T00:07:41.091Z,2.83
2022-09-13T00:10:09.992Z,3.03
2022-09-13T00:12:38.122Z,3.43
2022-09-13T00:15:08.718Z,2.50
2022-09-13T00:17:37.310Z,3.00
2022-09-13T00:20:06.043Z,3.10
2022-09-13T00:22:34.120Z,2.90
2022-09-13T00:25:02.827Z,2.83
2022-09-13T00:27:31.058Z,2.60
2022-09-13T00:29:59.007Z,2.90
2022-09-13T00:32:28.422Z,3.20
2022-09-13T00:34:56.676Z,2.67
2022-09-13T00:37:24.670Z,2.93
2022-09-13T00:39:52.691Z,2.83
2022-09-13T00:42:26.415Z,3.10
2022-09-13T00:44:58.526Z,2.77
2022-09-13T00:47:34.970Z,2.63
2022-09-13T00:50:08.380Z,3.27
2022-09-13T00:52:38.654Z,2.57
2022-09-13T00:55:12.771Z,3.27
2022-09-13T00:57:42.270Z,2.70
2022-09-13T01:00:13.880Z,2.60
2022-09-13T01:02:46.294Z,2.80
2022-09-13T01:05:16.072Z,2.60
2022-09-13T01:07:44.098Z,2.97
2022-09-13T01:10:12.184Z,3.10
2022-09-13T01:12:48.308Z,3.00
2022-09-13T01:15:16.611Z,2.70
2022-09-13T01:17:46.565Z,2.83
2022-09-13T01:20:15.404Z,3.03
2022-09-13T01:23:31.978Z,2.33
2022-09-13T01:26:28.010Z,2.97
2022-09-13T01:29:17.179Z,2.63
2022-09-13T01:31:55.396Z,2.50
2022-09-13T01:34:32.939Z,3.27
2022-09-13T01:37:18.658Z,3.50
2022-09-13T01:40:06.729Z,3.50
2022-09-13T01:42:49.675Z,3.53
2022-09-13T01:45:30.005Z,3.60
2022-09-13T01:48:01.840Z,3.23
2022-09-13T01:50:38.067Z,3.80
2022-09-13T01:53:15.230Z,3.10
2022-09-13T01:55:49.545Z,3.97
2022-09-13T01:58:24.538Z,2.97
2022-09-13T02:00:59.524Z,3.30
2022-09-13T02:03:34.437Z,2.97
2022-09-13T02:06:07.133Z,3.90
2022-09-13T02:08:40.045Z,3.63
2022-09-13T02:11:11.998Z,2.90
2022-09-13T02:13:44.228Z,2.93
2022-09-13T02:16:20.696Z,3.17
2022-09-13T02:18:54.868Z,2.97
2022-09-13T02:21:28.851Z,3.10
2022-09-13T02:24:02.147Z,3.13
2022-09-13T02:26:32.106Z,2.90
2022-09-13T02:29:04.712Z,2.97
2022-09-13T02:31:37.566Z,2.90
2022-09-13T02:34:11.050Z,3.47
2022-09-13T02:36:42.270Z,3.13
2022-09-13T02:39:15.322Z,3.17
2022-09-13T02:41:49.008Z,2.70
2022-09-13T02:44:25.105Z,3.03
2022-09-13T02:47:05.942Z,3.50
2022-09-13T02:49:48.381Z,3.13
2022-09-13T02:52:23.873Z,3.23
2022-09-13T02:54:58.512Z,3.00
2022-09-13T02:57:32.887Z,3.13
2022-09-13T03:00:01.231Z,3.17
2022-09-13T03:02:33.436Z,3.00
2022-09-13T03:05:03.790Z,3.23
2022-09-13T03:07:31.987Z,3.40
2022-09-13T03:10:05.648Z,2.90
2022-09-13T03:13:09.878Z,2.97
2022-09-13T03:15:50.739Z,3.20
2022-09-13T03:18:32.786Z,3.20
2022-09-13T03:21:12.798Z,3.70
2022-09-13T03:23:51.865Z,3.53
2022-09-13T03:26:37.562Z,4.07
2022-09-13T03:29:20.188Z,3.33
2022-09-13T03:31:53.414Z,2.83
2022-09-13T03:34:31.567Z,3.00
2022-09-13T03:37:07.505Z,3.27
2022-09-13T03:39:41.529Z,3.50
2022-09-13T03:42:19.447Z,3.00
2022-09-13T03:44:50.370Z,3.70
2022-09-13T03:47:20.438Z,3.20
2022-09-13T03:49:51.907Z,3.60
2022-09-13T03:52:21.810Z,3.90
2022-09-13T03:54:49.823Z,3.37
2022-09-13T03:57:20.969Z,3.37
2022-09-13T03:59:51.443Z,3.00
2022-09-13T04:02:21.086Z,3.80
2022-09-13T04:04:49.426Z,3.23
2022-09-13T04:07:18.858Z,3.47
2022-09-13T04:09:48.322Z,3.40
2022-09-13T04:12:17.435Z,3.23
2022-09-13T04:14:45.481Z,3.17
2022-09-13T04:17:14.062Z,3.23
2022-09-13T04:19:42.362Z,2.97
2022-09-13T04:22:10.319Z,3.00
2022-09-13T04:24:38.775Z,3.57
2022-09-13T04:27:08.397Z,3.37
2022-09-13T04:29:36.365Z,3.67
2022-09-13T04:32:04.601Z,3.77
2022-09-13T04:34:32.571Z,3.20
2022-09-13T04:37:00.531Z,3.67
2022-09-13T04:39:28.543Z,3.63
2022-09-13T04:41:56.644Z,3.07
2022-09-13T04:44:25.987Z,2.97
2022-09-13T04:46:53.948Z,3.00
2022-09-13T04:49:21.950Z,3.20
2022-09-13T04:51:50.630Z,3.27
2022-09-13T04:54:18.827Z,3.10
2022-09-13T04:56:47.102Z,3.10
2022-09-13T04:59:16.491Z,3.00
2022-09-13T05:01:45.897Z,3.37
2022-09-13T05:04:14.079Z,3.53
2022-09-13T05:06:41.990Z,3.50
2022-09-13T05:09:14.447Z,3.80
2022-09-13T05:11:42.862Z,3.13
2022-09-13T05:14:12.671Z,2.77
2022-09-13T05:16:40.698Z,3.27
2022-09-13T05:19:11.038Z,3.80
2022-09-13T05:21:39.325Z,3.70
2022-09-13T05:24:07.467Z,3.03
2022-09-13T05:26:35.427Z,3.10
2022-09-13T05:29:04.638Z,2.93
2022-09-13T05:31:34.661Z,3.83
2022-09-13T05:34:05.048Z,3.43
2022-09-13T05:36:34.634Z,4.13
2022-09-13T05:41:51.050Z,3.30
2022-09-13T05:44:19.043Z,3.53
2022-09-13T05:46:48.371Z,3.40
2022-09-13T05:49:16.577Z,3.23
2022-09-13T05:51:45.976Z,3.00
2022-09-13T05:54:14.359Z,3.80
2022-09-13T05:56:42.353Z,3.70
2022-09-13T05:59:14.508Z,3.80
2022-09-13T06:01:42.702Z,3.80
2022-09-13T06:04:12.406Z,3.87
2022-09-13T06:06:40.386Z,3.60
2022-09-13T06:09:12.255Z,4.00
2022-09-13T06:11:40.289Z,3.77
2022-09-13T06:14:08.288Z,3.70
2022-09-13T06:16:37.820Z,3.93
2022-09-13T06:19:06.075Z,4.00
2022-09-13T06:21:34.112Z,4.10
2022-09-13T06:24:02.302Z,3.90
2022-09-13T06:26:31.758Z,4.10
2022-09-13T06:29:00.272Z,3.40
2022-09-13T06:31:29.651Z,3.73
2022-09-13T06:34:00.884Z,3.77
2022-09-13T06:36:28.995Z,3.50
2022-09-13T06:39:00.309Z,3.60
2022-09-13T06:41:28.488Z,3.70
2022-09-13T06:43:59.198Z,3.83
2022-09-13T06:46:29.198Z,4.17
2022-09-13T06:48:59.942Z,4.57
2022-09-13T06:51:29.606Z,4.23
2022-09-13T06:53:58.162Z,3.80
2022-09-13T06:56:28.314Z,4.50
2022-09-13T06:58:59.453Z,3.70
2022-09-13T07:01:30.306Z,3.50
2022-09-13T07:04:01.184Z,4.27
2022-09-13T07:06:31.030Z,4.23
2022-09-13T07:09:00.722Z,4.37
2022-09-13T07:11:31.455Z,3.97
2022-09-13T07:14:01.126Z,3.70
2022-09-13T07:16:31.386Z,3.73
2022-09-13T07:19:01.089Z,4.37
2022-09-13T07:21:30.313Z,4.00
2022-09-13T07:23:59.174Z,3.40
2022-09-13T07:26:28.429Z,3.60
2022-09-13T07:28:59.727Z,3.70
2022-09-13T07:31:30.933Z,4.50
2022-09-13T07:34:00.974Z,3.53
2022-09-13T07:36:30.467Z,3.87
2022-09-13T07:38:59.475Z,4.47
2022-09-13T07:41:29.454Z,3.80
2022-09-13T07:43:58.685Z,3.40
2022-09-13T07:46:32.201Z,3.20
2022-09-13T07:49:01.943Z,3.77
2022-09-13T07:51:31.351Z,3.77
2022-09-13T07:54:00.589Z,3.20
2022-09-13T07:56:31.030Z,3.37
2022-09-13T07:59:00.928Z,3.93
2022-09-13T08:01:31.896Z,3.10
2022-09-13T08:04:01.864Z,3.10
2022-09-13T08:06:31.452Z,3.50
2022-09-13T08:08:59.873Z,3.00
2022-09-13T08:11:31.294Z,3.00
2022-09-13T08:13:59.879Z,3.27
2022-09-13T08:16:30.840Z,2.93
2022-09-13T08:19:01.532Z,2.97
2022-09-13T08:21:35.088Z,2.90
2022-09-13T08:24:04.127Z,2.63
2022-09-13T08:26:34.164Z,2.67
2022-09-13T08:29:03.904Z,2.60
2022-09-13T08:31:33.819Z,2.93
2022-09-13T08:34:01.846Z,3.40
2022-09-13T08:36:30.715Z,3.20
2022-09-13T08:39:00.347Z,3.10
2022-09-13T08:42:04.643Z,2.87
2022-09-13T08:44:35.653Z,2.70
2022-09-13T08:47:28.139Z,3.10
2022-09-13T08:50:11.940Z,3.03
2022-09-13T08:52:49.114Z,3.00
2022-09-13T08:55:26.058Z,3.03
2022-09-13T08:57:59.787Z,2.80
2022-09-13T09:00:32.696Z,3.30
2022-09-13T09:03:15.488Z,2.90
2022-09-13T09:05:48.986Z,3.00
2022-09-13T09:08:28.226Z,3.17
2022-09-13T09:10:58.385Z,3.07
2022-09-13T09:13:31.294Z,3.00
2022-09-13T09:16:03.651Z,3.30
2022-09-13T09:18:36.934Z,3.00
2022-09-13T09:21:05.991Z,3.00
2022-09-13T09:23:40.143Z,2.70
2022-09-13T09:26:17.734Z,2.83
2022-09-13T09:28:48.767Z,2.40
2022-09-13T09:31:22.888Z,2.70
2022-09-13T09:34:01.817Z,3.37
2022-09-13T09:36:38.647Z,3.30
2022-09-13T09:39:08.003Z,3.30
2022-09-13T09:41:38.306Z,3.00
2022-09-13T09:44:20.173Z,3.00
2022-09-13T09:46:51.709Z,2.87
2022-09-13T09:49:45.119Z,2.57
2022-09-13T09:52:18.666Z,3.13
2022-09-13T09:54:47.458Z,2.67
2022-09-13T09:57:15.560Z,2.77
2022-09-13T09:59:43.559Z,2.50
2022-09-13T10:02:21.238Z,3.27
2022-09-13T10:04:59.738Z,2.93
2022-09-13T10:07:32.529Z,3.33
2022-09-13T10:10:04.448Z,3.40
2022-09-13T10:12:36.015Z,3.50
2022-09-13T10:15:17.203Z,3.10
2022-09-13T10:18:02.628Z,3.27
2022-09-13T10:20:32.703Z,2.90
2022-09-13T10:23:13.165Z,2.83
2022-09-13T10:25:47.694Z,3.20
2022-09-13T10:28:20.168Z,3.00
2022-09-13T10:30:53.872Z,2.53
2022-09-13T10:33:27.851Z,2.80
2022-09-13T10:35:59.354Z,2.93
2022-09-13T10:38:32.723Z,3.00
2022-09-13T10:41:03.758Z,3.33
2022-09-13T10:43:32.747Z,3.37
2022-09-13T10:46:03.580Z,2.90
2022-09-13T10:48:44.853Z,2.50
2022-09-13T10:51:29.550Z,3.03
2022-09-13T10:54:10.294Z,2.57
2022-09-13T10:56:38.402Z,3.00
2022-09-13T10:59:22.655Z,2.50
2022-09-13T11:02:16.128Z,2.60
2022-09-13T11:04:58.022Z,2.23
2022-09-13T11:08:01.433Z,2.73
2022-09-13T11:10:37.390Z,2.40
2022-09-13T11:13:15.600Z,2.60
2022-09-13T11:15:55.514Z,2.20
2022-09-13T11:18:36.451Z,2.60
2022-09-13T11:21:19.324Z,2.77
2022-09-13T11:24:04.371Z,2.27
2022-09-13T11:26:46.542Z,2.33
2022-09-13T11:29:27.521Z,2.57
2022-09-13T11:32:07.639Z,2.50
2022-09-13T11:34:45.828Z,2.30
2022-09-13T11:37:30.911Z,2.70
2022-09-13T11:40:21.220Z,2.20
2022-09-13T11:43:00.486Z,2.57
2022-09-13T11:45:30.137Z,2.60
2022-09-13T11:48:27.595Z,2.50
2022-09-13T11:51:01.872Z,2.43
2022-09-13T11:53:50.173Z,2.30
2022-09-13T11:56:25.288Z,2.20
2022-09-13T11:58:56.431Z,2.20
2022-09-13T12:01:29.160Z,2.10
2022-09-13T12:04:01.752Z,1.90
2022-09-13T12:06:33.808Z,2.27
2022-09-13T12:09:06.872Z,2.30
2022-09-13T12:11:40.085Z,2.67
2022-09-13T12:14:14.815Z,2.00
2022-09-13T12:16:46.895Z,1.90
2022-09-13T12:19:20.181Z,1.90
2022-09-13T12:21:50.378Z,2.10
2022-09-13T12:24:22.657Z,2.10
2022-09-13T12:26:59.845Z,1.83
2022-09-13T12:29:36.366Z,2.13
2022-09-13T12:32:07.021Z,2.37
2022-09-13T12:34:44.752Z,2.23
2022-09-13T12:37:29.063Z,2.40
2022-09-13T12:40:23.510Z,2.27
2022-09-13T12:43:13.679Z,2.20
2022-09-13T12:46:02.000Z,2.23
2022-09-13T12:48:46.592Z,1.97
2022-09-13T12:51:27.508Z,2.37
2022-09-13T12:54:27.242Z,1.90
2022-09-13T12:57:05.450Z,2.23
2022-09-13T12:59:51.683Z,2.40
2022-09-13T13:02:30.385Z,2.90
2022-09-13T13:05:02.157Z,3.00
2022-09-13T13:07:32.958Z,2.53
2022-09-13T13:10:03.032Z,3.03
2022-09-13T13:12:34.244Z,3.60
2022-09-13T13:15:07.711Z,3.47
2022-09-13T13:17:50.937Z,3.17
2022-09-13T13:20:41.773Z,3.43
2022-09-13T13:23:25.637Z,3.47
2022-09-13T13:26:03.107Z,2.70
2022-09-13T13:28:52.031Z,2.57
2022-09-13T13:31:39.436Z,3.10
2022-09-13T13:34:31.154Z,2.70
2022-09-13T13:37:03.375Z,2.40
2022-09-13T13:39:37.962Z,2.40
2022-09-13T13:42:23.834Z,2.57
2022-09-13T13:45:21.118Z,2.60
2022-09-13T13:48:10.872Z,2.50
2022-09-13T13:51:20.690Z,2.40
2022-09-13T13:53:52.783Z,2.50
2022-09-13T13:56:46.943Z,2.57
2022-09-13T13:59:19.378Z,2.53
2022-09-13T14:01:54.158Z,2.30
2022-09-13T14:04:50.027Z,2.90
2022-09-13T14:07:54.437Z,2.20
2022-09-13T14:10:29.702Z,2.50
2022-09-13T14:13:18.334Z,2.10
2022-09-13T14:15:55.797Z,2.30
2022-09-13T14:18:57.491Z,3.33
2022-09-13T14:21:29.550Z,2.40
2022-09-13T14:24:18.430Z,2.27
2022-09-13T14:26:47.384Z,2.00
2022-09-13T14:29:18.882Z,2.20
2022-09-13T14:31:48.636Z,2.40
2022-09-13T14:34:24.394Z,3.53
2022-09-13T14:36:55.520Z,2.10
2022-09-13T14:39:24.405Z,1.90
2022-09-13T14:42:00.724Z,2.30
2022-09-13T14:44:29.500Z,1.90
2022-09-13T14:47:08.765Z,1.73
2022-09-13T14:49:40.877Z,1.80
2022-09-13T14:52:18.590Z,2.10
2022-09-13T14:54:52.682Z,1.90
2022-09-13T14:57:25.095Z,1.70
2022-09-13T14:59:57.312Z,1.90
2022-09-13T15:02:27.859Z,1.80
2022-09-13T15:04:58.654Z,2.33
2022-09-13T15:07:31.767Z,1.90
2022-09-13T15:10:08.054Z,1.80
2022-09-13T15:12:36.899Z,1.63
2022-09-13T15:15:32.662Z,1.93
2022-09-13T15:18:02.584Z,2.23
2022-09-13T15:20:44.731Z,1.93
2022-09-13T15:23:16.287Z,2.10
2022-09-13T15:25:51.470Z,2.20
2022-09-13T15:28:26.659Z,2.30
2022-09-13T15:30:56.049Z,2.10
2022-09-13T15:33:27.187Z,2.30
2022-09-13T15:36:26.651Z,2.40
2022-09-13T15:39:02.789Z,2.10
2022-09-13T15:41:33.123Z,2.37
2022-09-13T15:44:02.373Z,2.23
2022-09-13T15:46:31.266Z,2.20
2022-09-13T15:49:01.361Z,2.40
2022-09-13T15:51:30.320Z,2.23
2022-09-13T15:53:59.657Z,2.63
2022-09-13T15:56:32.235Z,2.87
2022-09-13T15:59:00.206Z,2.30
2022-09-13T16:01:28.437Z,2.50
2022-09-13T16:03:56.486Z,2.33
2022-09-13T16:06:24.878Z,2.30
2022-09-13T16:08:52.886Z,2.53
2022-09-13T16:11:22.169Z,2.67
2022-09-13T16:13:50.132Z,2.30
2022-09-13T16:16:18.102Z,2.70
2022-09-13T16:18:46.146Z,2.13
2022-09-13T16:21:14.114Z,2.50
2022-09-13T16:23:42.040Z,2.70
2022-09-13T16:26:11.454Z,2.63
2022-09-13T16:28:40.779Z,2.60
2022-09-13T16:31:08.733Z,2.77
2022-09-13T16:33:36.916Z,2.40
2022-09-13T16:36:04.999Z,2.40
2022-09-13T16:38:32.944Z,2.40
2022-09-13T16:41:00.907Z,2.37
2022-09-13T16:43:28.867Z,2.50
2022-09-13T16:45:58.133Z,2.37
2022-09-13T16:48:26.159Z,2.37
2022-09-13T16:50:54.154Z,2.53
2022-09-13T16:53:22.116Z,2.30
2022-09-13T16:55:50.457Z,2.77
2022-09-13T16:58:18.413Z,2.67
2022-09-13T17:00:46.742Z,2.80
2022-09-13T17:03:16.322Z,2.40
2022-09-13T17:05:44.357Z,2.40
2022-09-13T17:08:12.434Z,3.00
2022-09-13T17:10:40.382Z,2.80
2022-09-13T17:13:09.110Z,3.10
2022-09-13T17:15:40.148Z,2.40
2022-09-13T17:18:08.754Z,2.40
2022-09-13T17:20:43.564Z,3.23
2022-09-13T17:23:11.527Z,2.73
2022-09-13T17:25:43.340Z,2.50
2022-09-13T17:28:11.579Z,3.03
2022-09-13T17:30:39.695Z,2.40
2022-09-13T17:33:07.903Z,2.57
2022-09-13T17:35:37.646Z,2.57
2022-09-13T17:38:06.771Z,2.83
2022-09-13T17:40:34.931Z,2.93
2022-09-13T17:43:03.455Z,2.47
2022-09-13T17:45:31.433Z,2.73
2022-09-13T17:47:59.879Z,2.70
2022-09-13T17:50:28.043Z,2.60
2022-09-13T17:52:57.599Z,2.33
2022-09-13T17:55:25.955Z,2.70
2022-09-13T17:57:55.654Z,2.60
2022-09-13T18:00:23.605Z,2.67
2022-09-13T18:02:51.649Z,2.90
2022-09-13T18:05:19.658Z,2.57
2022-09-13T18:07:47.607Z,2.87
2022-09-13T18:10:45.217Z,2.70
2022-09-13T18:13:05.218Z,3.20
2022-09-13T18:15:33.296Z,2.77
2022-09-13T18:18:01.254Z,2.50
2022-09-13T18:20:29.379Z,3.00
2022-09-13T18:22:57.460Z,2.40
2022-09-13T18:25:27.318Z,2.60
2022-09-13T18:27:55.346Z,2.43
2022-09-13T18:30:23.315Z,2.67
2022-09-13T18:32:51.374Z,2.80
2022-09-13T18:35:19.362Z,2.90
2022-09-13T18:37:47.319Z,2.40
2022-09-13T18:40:17.420Z,2.60
2022-09-13T18:42:46.778Z,2.40
2022-09-13T18:45:14.795Z,2.17
2022-09-13T18:47:42.722Z,1.93
2022-09-13T18:50:11.795Z,2.30
2022-09-13T18:52:40.611Z,2.33
2022-09-13T18:55:09.006Z,2.17
2022-09-13T18:57:37.010Z,2.70
2022-09-13T19:00:07.479Z,2.37
2022-09-13T19:02:44.100Z,2.30
2022-09-13T19:05:20.534Z,2.50
2022-09-13T19:07:48.524Z,2.60
2022-09-13T19:10:16.514Z,2.30
2022-09-13T19:12:44.558Z,2.30
2022-09-13T19:15:14.246Z,2.40
2022-09-13T19:17:42.192Z,2.50
2022-09-13T19:20:11.357Z,2.53
2022-09-13T19:22:39.327Z,2.13
2022-09-13T19:25:08.160Z,2.70
2022-09-13T19:27:36.116Z,2.70
2022-09-13T19:30:04.543Z,2.53
2022-09-13T19:32:34.559Z,2.20
2022-09-13T19:35:02.514Z,2.60
2022-09-13T19:37:30.486Z,2.50
2022-09-13T19:39:58.472Z,2.83
2022-09-13T19:42:26.487Z,2.10
2022-09-13T19:44:54.427Z,2.50
2022-09-13T19:48:12.974Z,2.30
2022-09-13T19:50:12.131Z,2.70
2022-09-13T19:52:40.139Z,4.03
2022-09-13T19:55:09.270Z,2.20
2022-09-13T19:57:38.521Z,2.70
2022-09-13T20:00:09.663Z,2.57
2022-09-13T20:02:37.594Z,2.60
2022-09-13T20:05:06.252Z,2.67
2022-09-13T20:07:35.604Z,2.30
2022-09-13T20:10:03.663Z,2.23
2022-09-13T20:12:31.631Z,2.40
2022-09-13T20:14:59.973Z,2.67
2022-09-13T20:17:27.978Z,2.70
2022-09-13T20:19:56.028Z,3.10
2022-09-13T20:22:24.070Z,2.50
2022-09-13T20:24:54.044Z,2.97
2022-09-13T20:27:22.018Z,3.10
2022-09-13T20:29:50.037Z,2.67
2022-09-13T20:32:18.362Z,3.03
2022-09-13T20:34:46.499Z,2.87
2022-09-13T20:37:14.494Z,2.77
2022-09-13T20:39:43.102Z,3.20
2022-09-13T20:42:12.546Z,4.27
2022-09-13T20:44:42.091Z,3.37
2022-09-13T20:47:11.375Z,3.07
2022-09-13T20:49:39.366Z,3.20
2022-09-13T20:52:07.330Z,2.60
2022-09-13T20:54:35.339Z,3.27
2022-09-13T20:57:03.309Z,2.90
2022-09-13T20:59:32.696Z,3.20
2022-09-13T21:02:00.800Z,2.97
2022-09-13T21:04:28.834Z,2.73
2022-09-13T21:07:14.898Z,3.37
2022-09-13T21:09:43.296Z,3.07
2022-09-13T21:12:11.278Z,2.73
2022-09-13T21:14:40.594Z,3.40
2022-09-13T21:17:08.961Z,3.40
2022-09-13T21:19:37.018Z,3.47
2022-09-13T21:22:05.190Z,3.20
2022-09-13T21:24:33.123Z,3.60
2022-09-13T21:27:01.076Z,3.57
2022-09-13T21:29:29.563Z,3.20
2022-09-13T21:31:58.886Z,3.50
2022-09-13T21:34:29.487Z,3.20
2022-09-13T21:36:57.831Z,3.30
2022-09-13T21:39:26.351Z,3.27
2022-09-13T21:41:54.334Z,2.80
2022-09-13T21:44:22.287Z,2.67
2022-09-13T21:46:51.422Z,3.50
2022-09-13T21:49:21.890Z,2.83
2022-09-13T21:51:53.105Z,2.73
2022-09-13T21:54:21.456Z,2.83
2022-09-13T21:56:51.418Z,3.20
2022-09-13T21:59:22.091Z,2.80
2022-09-13T22:01:52.362Z,2.77
2022-09-13T22:04:23.645Z,2.63
2022-09-13T22:06:53.475Z,2.70
2022-09-13T22:09:23.014Z,3.00
2022-09-13T22:11:51.146Z,2.70
2022-09-13T22:14:21.749Z,2.60
2022-09-13T22:16:50.750Z,3.00
2022-09-13T22:19:22.394Z,2.70
2022-09-13T22:21:53.538Z,3.00
2022-09-13T22:24:22.926Z,2.97
2022-09-13T22:26:52.341Z,2.87
2022-09-13T22:29:21.163Z,2.90
2022-09-13T22:31:52.072Z,3.20
2022-09-13T22:34:23.270Z,2.90
2022-09-13T22:36:51.399Z,3.30
2022-09-13T22:39:19.442Z,3.23
2022-09-13T22:41:47.536Z,3.20
2022-09-13T22:44:15.494Z,2.80
2022-09-13T22:46:45.150Z,2.70
2022-09-13T22:49:15.198Z,3.20
2022-09-13T22:51:45.834Z,3.27
2022-09-13T22:54:14.449Z,2.80
2022-09-13T22:56:42.848Z,3.00
2022-09-13T22:59:14.509Z,2.47
2022-09-13T23:01:42.782Z,2.70
2022-09-13T23:04:10.935Z,2.60
2022-09-13T23:06:39.075Z,3.00
2022-09-13T23:09:09.643Z,3.10
2022-09-13T23:11:39.405Z,2.80
2022-09-13T23:14:09.750Z,2.63
2022-09-13T23:16:42.778Z,2.27
2022-09-13T23:19:11.774Z,2.60
2022-09-13T23:21:40.186Z,2.33
2022-09-13T23:24:13.177Z,2.60
2022-09-13T23:26:41.310Z,2.60
2022-09-13T23:29:13.247Z,2.90
2022-09-13T23:31:43.144Z,2.20
2022-09-13T23:34:12.672Z,2.37
2022-09-13T23:36:42.713Z,3.00
2022-09-13T23:39:16.484Z,2.60
2022-09-13T23:41:45.269Z,2.43
2022-09-13T23:44:13.576Z,2.83
2022-09-13T23:46:41.578Z,2.70
2022-09-13T23:49:09.621Z,2.90
2022-09-13T23:51:37.726Z,2.70
2022-09-13T23:54:06.282Z,2.87
2022-09-13T23:56:36.174Z,2.70
2022-09-13T23:59:06.121Z,2.73
